Latest Weather Observations for Broken Hill Airport

IDN60801

Issued at 12:02 pm EDT Tuesday 21 February 2017 (issued every 30 minutes, with the page automatically refreshed every 10 minutes)

About weather observations | Map of weather stations | Latest weather observations for NSW | Other Formats
Station Details ID: 047048 Name: BROKEN HILL AIRPORT AWS Lat: -32.00 Lon: 141.47 Height: 281.3 m
Data from the previous 72 hours. | See also: Recent months at Broken Hill Airport
Date/Time
EDT
Temp
°C
App
Temp
°C
Dew
Point
°C
Rel
Hum
%
Delta-T
°C
Wind Press
QNH
hPa
Press
MSL
hPa
Rain since
9am
mm
Dir  Spd
km/h
Gust
km/h
Spd
kts
Gust
kts
21/12:00pm 24.1 19.1 -0.9 19 11.4 E 15 9 8 5 1020.2 1018.7 -
21/11:30am 23.9 19.1 0.3 21 10.9 NE 15 24 8 13 1020.4 1018.9 0.0
21/11:00am 23.2 18.3 -0.3 21 10.7 ENE 15 22 8 12 1020.5 1019.0 0.0
21/10:30am 22.9 17.1 0.1 22 10.5 E 20 28 11 15 1020.4 1018.9 0.0
21/10:00am 21.7 15.9 -0.3 23 9.9 ENE 20 28 11 15 1020.6 1019.1 0.0
21/09:30am 21.1 15.0 0.3 25 9.4 ENE 22 28 12 15 1020.3 1018.8 0.0
21/09:00am 19.9 15.2 0.9 28 8.6 ENE 15 22 8 12 1020.1 1018.6 0.0
21/08:30am 17.6 13.5 2.4 36 7.0 ENE 13 15 7 8 1020.0 1018.4 0.0
21/08:00am 15.9 12.0 3.4 43 5.8 ENE 13 13 7 7 1019.5 1017.9 0.0
21/07:30am 13.7 9.5 1.7 44 5.3 NE 13 13 7 7 1018.9 1017.4 0.0
21/07:00am 13.5 8.8 0.9 42 5.4 ENE 15 17 8 9 1018.4 1016.9 0.0
21/06:30am 13.3 8.9 0.3 41 5.5 E 13 15 7 8 1018.0 1016.5 0.0
21/06:00am 13.5 9.1 0.5 41 5.5 E 13 15 7 8 1017.7 1016.2 0.0
21/05:30am 14.4 10.4 0.6 39 6.0 ESE 11 13 6 7 1017.6 1016.1 0.0
21/05:00am 13.9 9.9 0.5 40 5.7 ESE 11 13 6 7 1017.4 1015.9 0.0
21/04:30am 14.5 11.4 0.0 37 6.2 ESE 6 9 3 5 1017.3 1015.8 0.0
21/04:00am 15.5 12.5 0.5 36 6.5 ENE 6 7 3 4 1017.5 1016.0 0.0
21/03:30am 15.4 11.7 0.0 35 6.6 ESE 9 9 5 5 1017.7 1016.2 0.0
21/03:00am 15.9 12.6 0.1 34 6.8 E 7 9 4 5 1017.9 1016.4 0.0
21/02:30am 16.2 12.8 -0.5 32 7.2 ENE 7 11 4 6 1017.9 1016.4 0.0
21/02:00am 16.5 13.3 -0.2 32 7.2 NE 6 9 3 5 1018.2 1016.7 0.0
21/01:30am 16.9 12.8 -0.3 31 7.5 ESE 11 13 6 7 1018.1 1016.6 0.0
21/01:00am 17.0 12.8 -0.7 30 7.6 ESE 11 15 6 8 1018.3 1016.8 0.0
21/12:30am 17.6 13.1 -0.6 29 7.9 ESE 13 15 7 8 1018.5 1017.0 0.0
21/12:00am 18.2 13.3 -0.6 28 8.2 ESE 15 20 8 11 1018.8 1017.3 0.0
 
Date/Time
EDT
Temp
°C
App
Temp
°C
Dew
Point
°C
Rel
Hum
%
Delta-T
°C
Wind Press
QNH
hPa
Press
MSL
hPa
Rain since
9am
mm
Dir  Spd
km/h
Gust
km/h
Spd
kts
Gust
kts
20/11:30pm 18.5 13.6 -0.8 27 8.4 SE 15 19 8 10 1018.8 1017.3 0.0
20/11:00pm 18.9 14.0 -0.5 27 8.5 ESE 15 17 8 9 1018.7 1017.2 0.0
20/10:30pm 19.3 14.9 0.4 28 8.5 ESE 13 17 7 9 1018.4 1016.9 0.0
20/10:00pm 19.5 15.1 0.5 28 8.6 SE 13 17 7 9 1018.2 1016.7 0.0
20/09:30pm 19.1 14.9 -0.8 26 8.7 SSE 11 11 6 6 1017.8 1016.3 0.0
20/09:00pm 20.5 16.0 -0.2 25 9.3 SSE 13 17 7 9 1017.4 1015.9 0.0
20/08:30pm 21.2 16.8 0.4 25 9.5 SSE 13 17 7 9 1017.0 1015.5 0.0
20/08:00pm 21.8 17.1 0.9 25 9.7 SSW 15 17 8 9 1016.5 1014.9 0.0
20/07:30pm 22.7 18.4 1.1 24 10.1 S 13 20 7 11 1016.2 1014.6 0.0
20/07:00pm 22.8 18.1 1.2 24 10.1 S 15 24 8 13 1015.9 1014.3 0.0
20/06:30pm 23.1 17.5 0.9 23 10.4 SSW 20 30 11 16 1015.6 1014.0 0.0
20/06:00pm 23.5 18.6 1.8 24 10.3 SW 17 26 9 14 1015.3 1013.8 0.0
20/05:30pm 22.6 17.6 1.6 25 9.9 SSW 17 32 9 17 1015.2 1013.7 0.0
20/05:00pm 23.0 18.5 1.9 25 10.0 S 15 22 8 12 1015.2 1013.7 0.0
20/04:30pm 22.2 17.0 2.3 27 9.5 SSW 19 33 10 18 1015.5 1013.9 0.0
20/04:00pm 22.4 17.2 2.5 27 9.5 SSW 19 32 10 17 1015.8 1014.2 0.0
20/03:30pm 21.8 17.1 3.0 29 9.1 S 17 26 9 14 1016.1 1014.5 0.0
20/03:00pm 21.4 16.3 3.1 30 8.8 SSW 19 33 10 18 1016.4 1014.8 0.0
20/02:30pm 20.7 15.6 3.0 31 8.5 S 19 30 10 16 1016.8 1015.2 0.0
20/02:00pm 20.7 17.3 3.9 33 8.2 S 11 24 6 13 1017.2 1015.7 0.0
20/01:30pm 19.8 15.3 4.3 36 7.6 SSW 17 24 9 13 1017.4 1015.9 0.0
20/01:00pm 20.0 15.5 4.1 35 7.7 S 17 26 9 14 1017.6 1016.1 0.0
20/12:30pm 19.4 14.4 4.7 38 7.2 SSW 20 32 11 17 1017.6 1016.1 0.0
20/12:00pm 18.6 14.7 5.5 42 6.5 S 15 24 8 13 1018.0 1016.5 0.0
20/11:30am 17.9 14.0 5.5 44 6.1 SSE 15 22 8 12 1018.3 1016.8 0.0
20/11:00am 17.1 12.3 5.4 46 5.7 S 20 30 11 16 1018.5 1017.0 0.0
20/10:30am 17.0 12.5 6.2 49 5.4 SSE 19 28 10 15 1018.5 1017.0 0.0
20/10:00am 15.3 11.3 6.6 56 4.3 S 17 22 9 12 1018.5 1017.0 0.0
20/09:30am 15.3 11.1 7.3 59 4.0 SSE 19 24 10 13 1018.3 1016.8 0.0
20/09:00am 14.2 9.8 7.5 64 3.3 S 20 26 11 14 1018.1 1016.6 0.0
20/08:30am 13.4 8.3 7.6 68 2.9 S 24 28 13 15 1017.9 1016.4 0.0
20/08:00am 12.7 8.3 7.4 70 2.6 S 20 24 11 13 1017.5 1016.0 0.0
20/07:30am 12.1 7.8 7.2 72 2.4 S 19 28 10 15 1017.2 1015.7 0.0
20/07:00am 10.9 7.9 5.9 71 2.4 S 11 15 6 8 1017.0 1015.5 0.0
20/06:30am 11.7 8.7 6.2 69 2.6 SSW 11 13 6 7 1016.8 1015.2 0.0
20/06:00am 12.2 8.9 6.3 67 2.8 SSW 13 15 7 8 1016.7 1015.1 0.0
20/05:30am 12.8 9.2 6.6 66 3.0 S 15 20 8 11 1016.4 1014.8 0.0
20/05:00am 13.0 9.6 6.1 63 3.3 S 13 15 7 8 1016.3 1014.7 0.0
20/04:30am 13.5 9.4 6.1 61 3.6 S 17 20 9 11 1016.0 1014.4 0.0
20/04:00am 14.1 10.1 6.5 60 3.7 S 17 22 9 12 1015.8 1014.2 0.0
20/03:30am 14.5 10.4 6.3 58 4.0 S 17 22 9 12 1015.9 1014.3 0.0
20/03:00am 14.9 11.5 5.7 54 4.4 S 13 17 7 9 1015.7 1014.1 0.0
20/02:30am 15.7 10.6 5.9 52 4.8 SSW 22 28 12 15 1015.3 1013.8 0.0
20/02:00am 15.7 11.3 4.7 48 5.2 SSW 17 22 9 12 1015.5 1013.9 0.0
20/01:30am 16.3 11.8 4.0 44 5.8 SSW 17 22 9 12 1015.5 1013.9 0.0
20/01:00am 16.6 12.0 3.7 42 6.1 SW 17 20 9 11 1015.6 1014.0 0.0
20/12:30am 16.9 11.9 3.6 41 6.3 SW 19 22 10 12 1015.5 1013.9 0.0
20/12:00am 15.2 11.9 2.7 43 5.7 SW 9 11 5 6 1015.3 1013.8 0.0
 
Date/Time
EDT
Temp
°C
App
Temp
°C
Dew
Point
°C
Rel
Hum
%
Delta-T
°C
Wind Press
QNH
hPa
Press
MSL
hPa
Rain since
9am
mm
Dir  Spd
km/h
Gust
km/h
Spd
kts
Gust
kts
19/11:30pm 15.9 12.3 3.0 42 5.9 SW 11 15 6 8 1015.3 1013.8 0.0
19/11:00pm 16.1 12.8 2.5 40 6.2 SW 9 11 5 6 1015.3 1013.8 0.0
19/10:30pm 17.2 13.9 2.4 37 6.8 SW 9 11 5 6 1015.3 1013.8 0.0
19/10:00pm 18.5 14.5 2.8 35 7.4 SW 13 17 7 9 1015.1 1013.6 0.0
19/09:30pm 19.2 14.1 3.0 34 7.7 SW 19 26 10 14 1014.7 1013.2 0.0
19/09:00pm 19.8 14.1 2.6 32 8.1 SW 22 32 12 17 1014.5 1013.0 0.0
19/08:30pm 20.2 13.7 2.5 31 8.4 SSW 26 32 14 17 1014.3 1012.8 0.0
19/08:00pm 21.0 14.8 2.3 29 8.8 SSW 24 33 13 18 1014.0 1012.5 0.0
19/07:30pm 21.5 15.4 2.7 29 9.0 SW 24 35 13 19 1013.7 1012.2 0.0
19/07:00pm 22.1 15.1 2.2 27 9.5 SW 28 39 15 21 1013.5 1011.9 0.0
19/06:30pm 22.9 16.1 2.9 27 9.7 SW 28 41 15 22 1013.1 1011.5 0.0
19/06:00pm 23.0 16.0 1.9 25 10.1 SW 28 35 15 19 1013.2 1011.6 0.0
19/05:30pm 23.0 16.5 2.5 26 9.9 SSW 26 39 14 21 1013.1 1011.5 0.0
19/05:00pm 22.2 15.2 1.8 26 9.6 SSW 28 41 15 22 1013.3 1011.7 0.0
19/04:30pm 23.0 16.1 2.5 26 9.9 SW 28 41 15 22 1013.5 1011.9 0.0
19/04:00pm 23.3 17.3 3.3 27 9.8 SW 24 32 13 17 1013.8 1012.3 0.0
19/03:30pm 21.7 15.9 2.4 28 9.2 SW 22 41 12 22 1013.9 1012.4 0.0
19/03:00pm 21.2 15.1 3.0 30 8.7 SSW 24 39 13 21 1014.4 1012.9 0.0
19/02:30pm 21.0 15.4 3.2 31 8.6 SSW 22 35 12 19 1014.6 1013.1 0.0
19/02:00pm 19.6 14.5 2.9 33 7.9 SSW 19 37 10 20 1014.9 1013.4 0.0
19/01:30pm 20.3 14.6 3.1 32 8.2 SSW 22 35 12 19 1015.1 1013.6 0.0
19/01:00pm 19.6 14.4 3.3 34 7.8 SW 20 32 11 17 1015.6 1014.0 0.0
19/12:30pm 19.0 12.9 2.8 34 7.6 SSW 24 39 13 21 1016.0 1014.4 0.0
19/12:00pm 17.8 12.0 2.2 35 7.2 SSW 22 37 12 20 1016.4 1014.8 0.0
19/11:33am 18.4 12.3 2.7 35 7.3 S 24 48 13 26 1016.7 1015.1 0.0
19/11:30am 17.9 11.8 3.0 37 7.0 S 24 39 13 21 1016.7 1015.1 0.0
19/11:00am 17.2 11.2 3.1 39 6.6 SSW 24 32 13 17 1017.1 1015.6 0.0
19/10:30am 16.3 10.4 3.7 43 5.9 SSW 24 32 13 17 1017.2 1015.7 0.0
19/10:00am 15.3 9.4 4.1 47 5.2 SSW 24 32 13 17 1017.2 1015.7 0.0
19/09:30am 14.7 8.8 4.1 49 4.9 S 24 30 13 16 1017.0 1015.5 0.0
19/09:00am 14.1 8.4 4.9 54 4.3 SSW 24 33 13 18 1016.8 1015.2 0.0
19/08:30am 13.2 8.2 4.6 56 4.0 SSW 20 28 11 15 1016.7 1015.1 0.0
19/08:00am 12.1 7.6 4.1 58 3.7 SSW 17 22 9 12 1016.6 1015.0 0.0
19/07:30am 10.9 6.7 3.7 61 3.2 SSW 15 17 8 9 1016.4 1014.8 0.0
19/07:00am 11.1 6.9 3.6 60 3.4 SSW 15 17 8 9 1015.9 1014.3 0.0
19/06:30am 11.8 7.6 3.8 58 3.6 SSW 15 19 8 10 1015.5 1013.9 0.0
19/06:00am 12.4 7.4 3.6 55 4.0 SSW 19 24 10 13 1015.3 1013.8 0.0
19/05:30am 13.0 7.4 3.7 53 4.2 SSW 22 30 12 16 1015.0 1013.5 0.0
19/05:00am 13.5 8.4 4.1 53 4.3 SSW 20 26 11 14 1014.9 1013.4 0.0
19/04:30am 13.7 8.6 4.3 53 4.4 SSW 20 26 11 14 1014.8 1013.3 0.0
19/04:00am 14.1 8.4 4.7 53 4.4 S 24 30 13 16 1014.8 1013.3 0.0
19/03:30am 14.5 9.2 4.8 52 4.6 SSW 22 30 12 16 1015.0 1013.5 0.0
19/03:00am 14.9 8.0 4.6 50 4.9 S 30 41 16 22 1015.0 1013.5 0.0
19/02:30am 15.7 9.1 4.4 47 5.4 SSW 28 37 15 20 1015.0 1013.5 0.0
19/02:00am 16.2 9.3 4.6 46 5.5 S 30 43 16 23 1015.2 1013.7 0.0
19/01:40am 16.9 10.4 4.9 45 5.8 S 28 48 15 26 1015.1 1013.6 0.0
19/01:30am 17.3 11.5 4.6 43 6.1 S 24 32 13 17 1015.2 1013.7 0.0
19/01:00am 17.6 11.8 4.6 42 6.3 S 24 32 13 17 1015.2 1013.7 0.0
19/12:30am 17.8 11.3 4.7 42 6.3 S 28 35 15 19 1015.1 1013.6 0.0
19/12:00am 18.1 11.5 4.3 40 6.6 SSW 28 35 15 19 1014.9 1013.4 0.0
 
Date/Time
EDT
Temp
°C
App
Temp
°C
Dew
Point
°C
Rel
Hum
%
Delta-T
°C
Wind Press
QNH
hPa
Press
MSL
hPa
Rain since
9am
mm
Dir  Spd
km/h
Gust
km/h
Spd
kts
Gust
kts
18/11:30pm 18.6 11.8 3.3 36 7.2 SSW 28 37 15 20 1014.6 1013.1 0.0
18/11:00pm 19.2 12.7 2.6 33 7.8 SSW 26 37 14 20 1014.4 1012.9 0.0
18/10:30pm 19.3 13.8 1.8 31 8.1 SSW 20 28 11 15 1014.3 1012.8 0.0
18/10:00pm 19.6 14.2 2.5 32 8.0 SSW 20 26 11 14 1014.1 1012.6 0.0
18/09:30pm 19.8 14.4 2.2 31 8.2 SSW 20 28 11 15 1013.7 1012.2 0.0
18/09:00pm 20.4 13.9 2.7 31 8.4 SSW 26 35 14 19 1013.4 1011.8 0.0
18/08:30pm 20.8 14.3 2.6 30 8.6 SSW 26 35 14 19 1013.1 1011.5 0.0
18/08:00pm 21.3 14.5 3.0 30 8.8 SSW 28 35 15 19 1012.8 1011.2 0.0
18/07:30pm 22.3 14.6 2.4 27 9.5 SSW 32 48 17 26 1012.6 1011.0 0.0
18/07:00pm 23.5 15.7 2.9 26 10.0 SW 33 50 18 27 1012.3 1010.7 0.0
18/06:49pm 23.8 16.9 2.6 25 10.3 SW 28 46 15 25 1012.2 1010.6 0.0
18/06:30pm 23.7 17.3 3.1 26 10.1 SSW 26 44 14 24 1012.0 1010.4 0.0
18/06:05pm 24.4 17.7 3.7 26 10.3 SSW 28 56 15 30 1011.9 1010.3 0.0
18/06:00pm 23.9 17.2 3.8 27 10.0 SSW 28 43 15 23 1012.1 1010.5 0.0
18/05:30pm 23.5 17.1 3.4 27 9.9 SSW 26 37 14 20 1011.9 1010.3 0.0
18/05:14pm 23.7 16.9 3.1 26 10.1 SSW 28 46 15 25 1012.1 1010.5 0.0
18/05:00pm 25.1 18.1 4.3 26 10.5 SSW 30 43 16 23 1012.0 1010.4 0.0
18/04:49pm 24.5 17.9 4.3 27 10.2 SSW 28 46 15 25 1012.1 1010.5 0.0
18/04:30pm 22.7 15.9 3.3 28 9.5 SW 28 44 15 24 1012.4 1010.8 0.0
18/04:00pm 24.1 16.8 4.5 28 9.9 SW 32 43 17 23 1012.5 1010.9 0.0
18/03:44pm 23.9 17.3 4.3 28 9.8 SSW 28 46 15 25 1012.6 1011.0 0.0
18/03:30pm 23.5 16.9 4.0 28 9.7 SW 28 43 15 23 1012.8 1011.2 0.0
18/03:00pm 23.5 17.2 4.0 28 9.7 SW 26 43 14 23 1013.3 1011.7 0.0
18/02:45pm 23.7 16.9 5.1 30 9.4 SSW 30 50 16 27 1013.3 1011.7 0.0
18/02:30pm 23.5 16.2 4.5 29 9.5 SSW 32 48 17 26 1013.5 1011.9 0.0
18/02:20pm 23.2 16.3 4.7 30 9.3 SSW 30 48 16 26 1013.5 1011.9 0.0
18/02:00pm 22.3 15.4 4.4 31 8.9 SW 30 37 16 20 1013.7 1012.2 0.0
18/01:30pm 22.9 16.4 4.9 31 9.1 SSW 28 41 15 22 1013.8 1012.3 0.0
18/01:00pm 20.8 14.3 4.8 35 7.9 SSW 28 39 15 21 1014.2 1012.7 0.0

Other Formats:

Comma delimited format used in spreadsheet applications
http://www.bom.gov.au/fwo/IDN60801/IDN60801.94691.axf

JavaScript Object Notation format (JSON) in row-major order
http://www.bom.gov.au/fwo/IDN60801/IDN60801.94691.json